sensor_id;sensor_type;location;lat;lon;timestamp;pressure;altitude;pressure_sealevel;temperature;humidity
40205;BME280;26963;42.666;23.366;2023-02-11T00:00:29;96553.38;;;-0.67;47.94
40205;BME280;26963;42.666;23.366;2023-02-11T00:02:55;96608.28;;;-0.42;47.51
40205;BME280;26963;42.666;23.366;2023-02-11T00:05:20;96527.50;;;-0.93;48.13
40205;BME280;26963;42.666;23.366;2023-02-11T00:07:46;96601.84;;;-0.40;47.82
40205;BME280;26963;42.666;23.366;2023-02-11T00:10:11;96607.94;;;-0.39;48.55
40205;BME280;26963;42.666;23.366;2023-02-11T00:12:37;96556.88;;;-0.75;47.95
40205;BME280;26963;42.666;23.366;2023-02-11T00:15:04;96614.47;;;-0.35;47.55
40205;BME280;26963;42.666;23.366;2023-02-11T00:17:31;96537.03;;;-0.77;46.97
40205;BME280;26963;42.666;23.366;2023-02-11T00:19:57;96606.78;;;-0.37;46.96
40205;BME280;26963;42.666;23.366;2023-02-11T00:22:22;96598.50;;;-0.48;47.23
40205;BME280;26963;42.666;23.366;2023-02-11T00:24:48;96616.13;;;-0.34;47.19
40205;BME280;26963;42.666;23.366;2023-02-11T00:27:13;96599.16;;;-0.31;47.07
40205;BME280;26963;42.666;23.366;2023-02-11T00:29:39;96566.31;;;-0.51;46.47
40205;BME280;26963;42.666;23.366;2023-02-11T00:32:05;96579.91;;;-0.47;46.84
40205;BME280;26963;42.666;23.366;2023-02-11T00:34:34;96607.75;;;-0.38;46.57
40205;BME280;26963;42.666;23.366;2023-02-11T00:37:00;96540.66;;;-0.78;47.01
40205;BME280;26963;42.666;23.366;2023-02-11T00:39:26;96598.16;;;-0.45;46.69
40205;BME280;26963;42.666;23.366;2023-02-11T00:41:51;96603.03;;;-0.42;47.06
40205;BME280;26963;42.666;23.366;2023-02-11T00:44:17;96478.13;;;-1.28;47.28
40205;BME280;26963;42.666;23.366;2023-02-11T00:46:42;96545.34;;;-0.89;46.98
40205;BME280;26963;42.666;23.366;2023-02-11T00:49:08;96549.63;;;-0.88;47.35
40205;BME280;26963;42.666;23.366;2023-02-11T00:51:34;96581.47;;;-0.53;47.75
40205;BME280;26963;42.666;23.366;2023-02-11T00:53:59;96499.69;;;-0.88;46.90
40205;BME280;26963;42.666;23.366;2023-02-11T00:56:25;96547.81;;;-0.42;46.39
40205;BME280;26963;42.666;23.366;2023-02-11T00:58:51;96562.78;;;-0.28;46.08
40205;BME280;26963;42.666;23.366;2023-02-11T01:01:18;96593.03;;;-0.02;46.11
40205;BME280;26963;42.666;23.366;2023-02-11T01:03:43;96557.16;;;-0.25;45.31
40205;BME280;26963;42.666;23.366;2023-02-11T01:06:09;96557.66;;;-0.14;45.17
40205;BME280;26963;42.666;23.366;2023-02-11T01:08:34;96580.22;;;-0.05;44.65
40205;BME280;26963;42.666;23.366;2023-02-11T01:11:07;96557.66;;;-0.14;44.90
40205;BME280;26963;42.666;23.366;2023-02-11T01:13:35;96582.59;;;0.05;44.51
40205;BME280;26963;42.666;23.366;2023-02-11T01:16:02;96516.16;;;-0.34;44.63
40205;BME280;26963;42.666;23.366;2023-02-11T01:18:28;96532.09;;;-0.21;44.58
40205;BME280;26963;42.666;23.366;2023-02-11T01:20:54;96585.03;;;0.06;44.38
40205;BME280;26963;42.666;23.366;2023-02-11T01:23:20;96571.00;;;-0.01;44.57
40205;BME280;26963;42.666;23.366;2023-02-11T01:25:46;96556.03;;;-0.15;44.46
40205;BME280;26963;42.666;23.366;2023-02-11T01:28:16;96548.72;;;-0.20;44.05
40205;BME280;26963;42.666;23.366;2023-02-11T01:30:43;96566.47;;;-0.07;44.46
40205;BME280;26963;42.666;23.366;2023-02-11T01:33:09;96576.25;;;-0.01;44.58
40205;BME280;26963;42.666;23.366;2023-02-11T01:35:34;96564.63;;;-0.07;44.45
40205;BME280;26963;42.666;23.366;2023-02-11T01:38:00;96496.94;;;-0.50;44.66
40205;BME280;26963;42.666;23.366;2023-02-11T01:40:25;96540.97;;;-0.22;44.69
40205;BME280;26963;42.666;23.366;2023-02-11T01:48:12;96539.38;;;-0.23;44.62
40205;BME280;26963;42.666;23.366;2023-02-11T01:50:41;96474.13;;;-0.79;44.43
40205;BME280;26963;42.666;23.366;2023-02-11T01:53:08;96566.75;;;-0.17;43.95
40205;BME280;26963;42.666;23.366;2023-02-11T01:55:53;96444.50;;;-1.03;44.28
40205;BME280;26963;42.666;23.366;2023-02-11T01:58:40;96502.78;;;-0.69;44.98
40205;BME280;26963;42.666;23.366;2023-02-11T02:01:10;96504.03;;;-0.65;44.88
40205;BME280;26963;42.666;23.366;2023-02-11T02:03:39;96552.53;;;-0.38;44.88
40205;BME280;26963;42.666;23.366;2023-02-11T02:06:37;96568.47;;;-0.24;44.86
40205;BME280;26963;42.666;23.366;2023-02-11T02:09:15;96574.91;;;-0.27;44.63
40205;BME280;26963;42.666;23.366;2023-02-11T02:11:42;96569.31;;;-0.24;45.26
40205;BME280;26963;42.666;23.366;2023-02-11T02:14:08;96512.19;;;-0.60;44.87
40205;BME280;26963;42.666;23.366;2023-02-11T02:16:35;96497.88;;;-0.72;45.12
40205;BME280;26963;42.666;23.366;2023-02-11T02:24:54;96572.00;;;-0.32;44.68
40205;BME280;26963;42.666;23.366;2023-02-11T02:33:18;96568.78;;;-0.34;45.16
40205;BME280;26963;42.666;23.366;2023-02-11T02:38:33;96454.47;;;-1.13;44.97
40205;BME280;26963;42.666;23.366;2023-02-11T02:41:15;96494.81;;;-0.91;45.25
40205;BME280;26963;42.666;23.366;2023-02-11T02:43:44;96539.03;;;-0.64;45.61
40205;BME280;26963;42.666;23.366;2023-02-11T02:48:43;96554.25;;;-0.60;44.87
40205;BME280;26963;42.666;23.366;2023-02-11T02:56:47;96315.03;;;-2.31;45.26
40205;BME280;26963;42.666;23.366;2023-02-11T03:05:09;96578.97;;;-0.84;46.18
40205;BME280;26963;42.666;23.366;2023-02-11T03:07:53;96545.66;;;-1.22;46.68
40205;BME280;26963;42.666;23.366;2023-02-11T03:10:45;96578.66;;;-1.04;46.31
40205;BME280;26963;42.666;23.366;2023-02-11T03:13:10;96577.03;;;-1.05;46.45
40205;BME280;26963;42.666;23.366;2023-02-11T03:15:41;96572.50;;;-1.11;46.68
40205;BME280;26963;42.666;23.366;2023-02-11T03:18:11;96563.84;;;-1.35;47.18
40205;BME280;26963;42.666;23.366;2023-02-11T03:20:41;96584.16;;;-1.29;46.94
40205;BME280;26963;42.666;23.366;2023-02-11T03:23:13;96582.50;;;-1.30;47.32
40205;BME280;26963;42.666;23.366;2023-02-11T03:25:44;96559.94;;;-1.39;47.63
40205;BME280;26963;42.666;23.366;2023-02-11T03:30:54;96553.03;;;-1.40;47.22
40205;BME280;26963;42.666;23.366;2023-02-11T03:33:28;96552.34;;;-1.34;47.20
40205;BME280;26963;42.666;23.366;2023-02-11T03:35:58;96562.16;;;-1.28;46.63
40205;BME280;26963;42.666;23.366;2023-02-11T03:38:38;96581.81;;;-1.24;46.74
40205;BME280;26963;42.666;23.366;2023-02-11T03:41:08;96566.38;;;-1.27;46.80
40205;BME280;26963;42.666;23.366;2023-02-11T03:43:48;96575.56;;;-1.23;46.89
40205;BME280;26963;42.666;23.366;2023-02-11T03:46:17;96574.72;;;-1.23;47.24
40205;BME280;26963;42.666;23.366;2023-02-11T03:48:51;96553.03;;;-1.40;46.86
40205;BME280;26963;42.666;23.366;2023-02-11T03:51:19;96571.63;;;-1.27;47.02
40205;BME280;26963;42.666;23.366;2023-02-11T03:53:46;96562.31;;;-1.29;47.19
40205;BME280;26963;42.666;23.366;2023-02-11T03:56:18;96567.31;;;-1.20;47.01
40205;BME280;26963;42.666;23.366;2023-02-11T03:58:47;96579.47;;;-1.19;46.96
40205;BME280;26963;42.666;23.366;2023-02-11T04:01:13;96568.31;;;-1.21;46.67
40205;BME280;26963;42.666;23.366;2023-02-11T04:03:38;96487.69;;;-1.73;46.51
40205;BME280;26963;42.666;23.366;2023-02-11T04:06:05;96558.50;;;-1.27;46.71
40205;BME280;26963;42.666;23.366;2023-02-11T04:08:30;96538.00;;;-1.46;46.70
40205;BME280;26963;42.666;23.366;2023-02-11T04:10:57;96577.44;;;-1.32;46.82
40205;BME280;26963;42.666;23.366;2023-02-11T04:13:23;96563.56;;;-1.40;46.96
40205;BME280;26963;42.666;23.366;2023-02-11T04:15:49;96507.31;;;-1.69;47.06
40205;BME280;26963;42.666;23.366;2023-02-11T04:18:15;96498.22;;;-1.82;46.80
40205;BME280;26963;42.666;23.366;2023-02-11T04:20:40;96551.94;;;-1.69;47.12
40205;BME280;26963;42.666;23.366;2023-02-11T04:23:06;96577.72;;;-2.04;48.05
40205;BME280;26963;42.666;23.366;2023-02-11T04:25:31;96477.84;;;-2.97;49.13
40205;BME280;26963;42.666;23.366;2023-02-11T04:27:57;96350.50;;;-4.11;50.30
40205;BME280;26963;42.666;23.366;2023-02-11T04:30:22;96574.06;;;-2.83;50.35
40205;BME280;26963;42.666;23.366;2023-02-11T04:32:48;96528.97;;;-3.26;51.16
40205;BME280;26963;42.666;23.366;2023-02-11T04:35:13;96376.97;;;-4.47;51.33
40205;BME280;26963;42.666;23.366;2023-02-11T04:37:39;96493.16;;;-3.83;51.87
40205;BME280;26963;42.666;23.366;2023-02-11T04:40:04;96476.66;;;-4.08;52.54
40205;BME280;26963;42.666;23.366;2023-02-11T04:42:30;96555.16;;;-3.67;52.91
40205;BME280;26963;42.666;23.366;2023-02-11T04:44:56;96560.69;;;-3.70;53.50
40205;BME280;26963;42.666;23.366;2023-02-11T04:47:21;96561.34;;;-3.77;53.70
40205;BME280;26963;42.666;23.366;2023-02-11T04:49:47;96557.25;;;-3.87;53.76
40205;BME280;26963;42.666;23.366;2023-02-11T04:52:12;96561.47;;;-3.95;53.98
40205;BME280;26963;42.666;23.366;2023-02-11T04:54:38;96544.78;;;-4.10;54.63
40205;BME280;26963;42.666;23.366;2023-02-11T04:57:03;96571.09;;;-4.12;54.85
40205;BME280;26963;42.666;23.366;2023-02-11T04:59:29;96548.50;;;-4.21;55.29
40205;BME280;26963;42.666;23.366;2023-02-11T05:01:54;96488.97;;;-4.52;54.80
40205;BME280;26963;42.666;23.366;2023-02-11T05:04:20;96473.94;;;-4.58;55.10
40205;BME280;26963;42.666;23.366;2023-02-11T05:06:45;96531.38;;;-4.15;54.97
40205;BME280;26963;42.666;23.366;2023-02-11T05:09:13;96326.13;;;-5.45;54.69
40205;BME280;26963;42.666;23.366;2023-02-11T05:11:39;96510.78;;;-4.10;53.82
40205;BME280;26963;42.666;23.366;2023-02-11T05:14:06;96425.31;;;-4.43;52.95
40205;BME280;26963;42.666;23.366;2023-02-11T05:16:31;96559.72;;;-3.61;53.73
40205;BME280;26963;42.666;23.366;2023-02-11T05:18:57;96548.59;;;-3.71;53.89
40205;BME280;26963;42.666;23.366;2023-02-11T05:21:23;96552.38;;;-3.66;54.49
40205;BME280;26963;42.666;23.366;2023-02-11T05:23:48;96524.38;;;-3.82;54.18
40205;BME280;26963;42.666;23.366;2023-02-11T05:26:14;96526.69;;;-3.79;54.01
40205;BME280;26963;42.666;23.366;2023-02-11T05:28:40;96560.03;;;-3.64;54.18
40205;BME280;26963;42.666;23.366;2023-02-11T05:31:09;96550.22;;;-3.70;53.63
40205;BME280;26963;42.666;23.366;2023-02-11T05:33:34;96556.28;;;-3.70;53.76
40205;BME280;26963;42.666;23.366;2023-02-11T05:36:02;96538.94;;;-3.87;53.95
40205;BME280;26963;42.666;23.366;2023-02-11T05:38:28;96547.28;;;-3.84;54.45
40205;BME280;26963;42.666;23.366;2023-02-11T05:40:53;96559.38;;;-3.74;54.31
40205;BME280;26963;42.666;23.366;2023-02-11T05:43:19;96516.53;;;-3.98;53.97
40205;BME280;26963;42.666;23.366;2023-02-11T05:45:45;96537.47;;;-3.73;54.05
40205;BME280;26963;42.666;23.366;2023-02-11T05:48:10;96326.28;;;-5.12;53.79
40205;BME280;26963;42.666;23.366;2023-02-11T05:50:36;96487.09;;;-4.08;53.82
40205;BME280;26963;42.666;23.366;2023-02-11T05:53:02;96373.63;;;-4.90;53.40
40205;BME280;26963;42.666;23.366;2023-02-11T05:55:27;96486.09;;;-4.16;52.98
40205;BME280;26963;42.666;23.366;2023-02-11T05:57:53;96567.22;;;-3.66;53.48
40205;BME280;26963;42.666;23.366;2023-02-11T06:00:19;96560.72;;;-3.62;53.50
40205;BME280;26963;42.666;23.366;2023-02-11T06:02:45;96478.28;;;-4.07;53.22
40205;BME280;26963;42.666;23.366;2023-02-11T06:05:10;96535.38;;;-3.70;53.56
40205;BME280;26963;42.666;23.366;2023-02-11T06:07:36;96547.13;;;-3.66;53.34
40205;BME280;26963;42.666;23.366;2023-02-11T06:10:03;96561.84;;;-3.56;53.23
40205;BME280;26963;42.666;23.366;2023-02-11T06:12:28;96574.13;;;-3.49;53.12
40205;BME280;26963;42.666;23.366;2023-02-11T06:14:54;96574.44;;;-3.44;53.20
40205;BME280;26963;42.666;23.366;2023-02-11T06:17:19;96557.44;;;-3.48;53.18
40205;BME280;26963;42.666;23.366;2023-02-11T06:19:45;96561.69;;;-3.47;52.76
40205;BME280;26963;42.666;23.366;2023-02-11T06:22:10;96521.47;;;-3.79;52.61
40205;BME280;26963;42.666;23.366;2023-02-11T06:24:38;96507.06;;;-3.91;53.01
40205;BME280;26963;42.666;23.366;2023-02-11T06:27:04;96549.59;;;-3.56;53.00
40205;BME280;26963;42.666;23.366;2023-02-11T06:29:30;96501.50;;;-3.71;52.44
40205;BME280;26963;42.666;23.366;2023-02-11T06:31:55;96553.50;;;-3.35;52.13
40205;BME280;26963;42.666;23.366;2023-02-11T06:34:21;96582.63;;;-3.14;52.16
40205;BME280;26963;42.666;23.366;2023-02-11T06:36:46;96580.66;;;-3.12;51.92
40205;BME280;26963;42.666;23.366;2023-02-11T06:39:12;96540.91;;;-3.23;52.17
40205;BME280;26963;42.666;23.366;2023-02-11T06:41:38;96564.94;;;-3.03;52.52
40205;BME280;26963;42.666;23.366;2023-02-11T06:44:04;96493.00;;;-3.49;52.79
40205;BME280;26963;42.666;23.366;2023-02-11T06:46:30;96500.81;;;-3.32;52.06
40205;BME280;26963;42.666;23.366;2023-02-11T06:48:55;96545.31;;;-3.07;51.80
40205;BME280;26963;42.666;23.366;2023-02-11T06:51:21;96501.97;;;-3.26;51.73
40205;BME280;26963;42.666;23.366;2023-02-11T06:53:46;96581.25;;;-2.68;52.01
40205;BME280;26963;42.666;23.366;2023-02-11T06:56:18;96496.34;;;-2.99;51.40
40205;BME280;26963;42.666;23.366;2023-02-11T06:58:43;96528.47;;;-2.57;50.81
40205;BME280;26963;42.666;23.366;2023-02-11T07:01:11;96587.91;;;-1.78;49.80
40205;BME280;26963;42.666;23.366;2023-02-11T07:03:39;96582.84;;;-1.33;49.17
40205;BME280;26963;42.666;23.366;2023-02-11T07:06:06;96505.88;;;-1.34;48.15
40205;BME280;26963;42.666;23.366;2023-02-11T07:08:34;96553.72;;;-0.55;46.85
40205;BME280;26963;42.666;23.366;2023-02-11T07:10:59;96510.53;;;-0.31;46.31
40205;BME280;26963;42.666;23.366;2023-02-11T07:13:25;96467.09;;;-0.05;45.42
40205;BME280;26963;42.666;23.366;2023-02-11T07:15:50;96547.38;;;0.92;43.55
40205;BME280;26963;42.666;23.366;2023-02-11T07:18:16;96561.97;;;1.52;42.64
40205;BME280;26963;42.666;23.366;2023-02-11T07:20:42;96529.19;;;1.74;41.40
40205;BME280;26963;42.666;23.366;2023-02-11T07:23:07;96548.91;;;2.27;40.91
40205;BME280;26963;42.666;23.366;2023-02-11T07:25:34;96552.81;;;2.85;40.79
40205;BME280;26963;42.666;23.366;2023-02-11T07:27:59;96541.22;;;3.26;38.98
40205;BME280;26963;42.666;23.366;2023-02-11T07:30:25;96520.63;;;3.55;37.56
40205;BME280;26963;42.666;23.366;2023-02-11T07:32:53;96534.66;;;4.07;36.91
40205;BME280;26963;42.666;23.366;2023-02-11T07:35:18;96523.16;;;4.27;36.82
40205;BME280;26963;42.666;23.366;2023-02-11T07:37:44;96515.03;;;4.54;35.68
40205;BME280;26963;42.666;23.366;2023-02-11T07:40:10;96421.44;;;4.28;35.46
40205;BME280;26963;42.666;23.366;2023-02-11T07:42:35;96498.38;;;4.97;34.70
40205;BME280;26963;42.666;23.366;2023-02-11T07:45:01;96528.53;;;5.47;34.69
40205;BME280;26963;42.666;23.366;2023-02-11T07:47:27;96522.56;;;5.70;33.62
40205;BME280;26963;42.666;23.366;2023-02-11T07:49:52;96521.06;;;5.99;33.79
40205;BME280;26963;42.666;23.366;2023-02-11T07:52:18;96513.41;;;6.22;32.44
40205;BME280;26963;42.666;23.366;2023-02-11T07:54:44;96529.53;;;6.39;32.42
40205;BME280;26963;42.666;23.366;2023-02-11T07:57:10;96521.06;;;6.60;31.72
40205;BME280;26963;42.666;23.366;2023-02-11T07:59:35;96466.25;;;6.59;31.62
40205;BME280;26963;42.666;23.366;2023-02-11T08:02:01;96499.13;;;7.24;30.75
40205;BME280;26963;42.666;23.366;2023-02-11T08:04:27;96504.31;;;7.55;30.01
40205;BME280;26963;42.666;23.366;2023-02-11T08:06:53;96499.16;;;7.89;30.01
40205;BME280;26963;42.666;23.366;2023-02-11T08:09:21;96454.69;;;7.89;29.25
40205;BME280;26963;42.666;23.366;2023-02-11T08:11:47;96496.91;;;8.38;28.83
40205;BME280;26963;42.666;23.366;2023-02-11T08:14:12;96490.59;;;8.44;28.58
40205;BME280;26963;42.666;23.366;2023-02-11T08:16:39;96375.28;;;7.62;28.86
40205;BME280;26963;42.666;23.366;2023-02-11T08:19:07;96420.66;;;7.79;29.12
40205;BME280;26963;42.666;23.366;2023-02-11T08:21:35;96503.16;;;8.15;28.94
40205;BME280;26963;42.666;23.366;2023-02-11T08:24:01;96453.22;;;7.70;29.17
40205;BME280;26963;42.666;23.366;2023-02-11T08:26:29;96484.75;;;7.73;28.89
40205;BME280;26963;42.666;23.366;2023-02-11T08:28:57;96509.75;;;7.72;29.48
40205;BME280;26963;42.666;23.366;2023-02-11T08:31:32;96488.38;;;7.43;29.38
40205;BME280;26963;42.666;23.366;2023-02-11T08:34:00;96494.97;;;7.05;29.75
40205;BME280;26963;42.666;23.366;2023-02-11T08:36:34;96457.91;;;6.67;30.14
40205;BME280;26963;42.666;23.366;2023-02-11T08:39:03;96478.16;;;6.68;30.39
40205;BME280;26963;42.666;23.366;2023-02-11T08:41:33;96459.16;;;6.41;30.62
40205;BME280;26963;42.666;23.366;2023-02-11T08:43:59;96459.59;;;6.38;31.07
40205;BME280;26963;42.666;23.366;2023-02-11T08:46:25;96503.66;;;6.88;31.06
40205;BME280;26963;42.666;23.366;2023-02-11T08:48:51;96313.25;;;5.79;30.87
40205;BME280;26963;42.666;23.366;2023-02-11T08:51:23;96492.41;;;6.86;30.54
40205;BME280;26963;42.666;23.366;2023-02-11T08:53:49;96505.47;;;6.88;30.42
40205;BME280;26963;42.666;23.366;2023-02-11T08:56:16;96501.00;;;6.88;30.91
40205;BME280;26963;42.666;23.366;2023-02-11T08:58:42;96494.47;;;6.84;30.60
40205;BME280;26963;42.666;23.366;2023-02-11T09:01:13;96477.47;;;6.61;30.68
40205;BME280;26963;42.666;23.366;2023-02-11T09:03:39;96492.38;;;6.62;31.20
40205;BME280;26963;42.666;23.366;2023-02-11T09:06:06;96486.47;;;6.60;31.42
40205;BME280;26963;42.666;23.366;2023-02-11T09:08:36;96411.13;;;6.24;31.63
40205;BME280;26963;42.666;23.366;2023-02-11T09:11:03;96498.28;;;6.76;31.35
40205;BME280;26963;42.666;23.366;2023-02-11T09:13:29;96444.84;;;6.54;31.28
40205;BME280;26963;42.666;23.366;2023-02-11T09:15:56;96486.19;;;6.92;31.12
40205;BME280;26963;42.666;23.366;2023-02-11T09:18:21;96483.41;;;7.11;30.73
40205;BME280;26963;42.666;23.366;2023-02-11T09:20:47;96498.31;;;7.35;30.61
40205;BME280;26963;42.666;23.366;2023-02-11T09:23:12;96383.47;;;6.79;30.60
40205;BME280;26963;42.666;23.366;2023-02-11T09:25:39;96437.22;;;7.29;30.17
40205;BME280;26963;42.666;23.366;2023-02-11T09:28:08;96440.78;;;7.34;30.13
40205;BME280;26963;42.666;23.366;2023-02-11T09:30:38;96388.97;;;7.01;29.84
40205;BME280;26963;42.666;23.366;2023-02-11T09:33:03;96469.16;;;7.41;30.02
40205;BME280;26963;42.666;23.366;2023-02-11T09:35:29;96444.06;;;7.13;30.00
40205;BME280;26963;42.666;23.366;2023-02-11T09:37:54;96468.00;;;7.13;30.45
40205;BME280;26963;42.666;23.366;2023-02-11T09:40:20;96475.19;;;7.24;30.21
40205;BME280;26963;42.666;23.366;2023-02-11T09:43:10;96463.38;;;7.20;30.07
40205;BME280;26963;42.666;23.366;2023-02-11T09:45:37;96431.69;;;6.83;30.15
40205;BME280;26963;42.666;23.366;2023-02-11T09:48:21;96447.44;;;7.08;30.61
40205;BME280;26963;42.666;23.366;2023-02-11T09:50:53;96408.31;;;7.09;30.48
40205;BME280;26963;42.666;23.366;2023-02-11T09:53:28;96372.53;;;7.28;30.07
40205;BME280;26963;42.666;23.366;2023-02-11T09:56:02;96387.03;;;7.61;28.87
40205;BME280;26963;42.666;23.366;2023-02-11T09:58:37;96420.22;;;7.99;28.32
40205;BME280;26963;42.666;23.366;2023-02-11T10:13:06;96337.47;;;7.48;29.13
40205;BME280;26963;42.666;23.366;2023-02-11T10:21:44;96391.63;;;7.95;29.25
40205;BME280;26963;42.666;23.366;2023-02-11T10:24:13;96214.44;;;6.89;27.56
40205;BME280;26963;42.666;23.366;2023-02-11T10:26:40;96324.41;;;7.76;27.81
40205;BME280;26963;42.666;23.366;2023-02-11T10:31:49;96368.81;;;8.33;26.65
40205;BME280;26963;42.666;23.366;2023-02-11T10:34:15;96337.06;;;8.14;26.20
40205;BME280;26963;42.666;23.366;2023-02-11T10:36:44;96163.75;;;6.95;27.16
40205;BME280;26963;42.666;23.366;2023-02-11T10:39:17;96219.25;;;7.32;26.34
40205;BME280;26963;42.666;23.366;2023-02-11T10:41:58;96334.63;;;7.96;27.07
40205;BME280;26963;42.666;23.366;2023-02-11T10:47:01;96308.31;;;7.71;27.54
40205;BME280;26963;42.666;23.366;2023-02-11T10:49:39;96316.50;;;7.81;27.96
40205;BME280;26963;42.666;23.366;2023-02-11T10:52:21;96262.19;;;7.53;27.25
40205;BME280;26963;42.666;23.366;2023-02-11T10:55:04;96307.47;;;7.82;26.83
40205;BME280;26963;42.666;23.366;2023-02-11T10:57:51;96294.22;;;7.87;27.88
40205;BME280;26963;42.666;23.366;2023-02-11T11:03:16;96279.84;;;8.22;26.47
40205;BME280;26963;42.666;23.366;2023-02-11T11:06:00;96290.09;;;8.30;26.23
40205;BME280;26963;42.666;23.366;2023-02-11T11:08:50;96276.19;;;8.45;26.26
40205;BME280;26963;42.666;23.366;2023-02-11T11:11:21;96242.13;;;8.47;26.35
40205;BME280;26963;42.666;23.366;2023-02-11T11:13:57;96228.59;;;8.54;25.44
40205;BME280;26963;42.666;23.366;2023-02-11T11:16:32;96290.16;;;8.70;25.31
40205;BME280;26963;42.666;23.366;2023-02-11T11:26:44;96195.66;;;8.09;26.16
40205;BME280;26963;42.666;23.366;2023-02-11T11:29:18;96276.69;;;8.42;25.76
40205;BME280;26963;42.666;23.366;2023-02-11T11:31:56;96229.16;;;7.83;26.68
40205;BME280;26963;42.666;23.366;2023-02-11T11:34:30;96272.25;;;8.14;26.20
40205;BME280;26963;42.666;23.366;2023-02-11T11:36:57;96258.38;;;7.95;26.51
40205;BME280;26963;42.666;23.366;2023-02-11T11:39:26;96232.31;;;7.51;26.89
40205;BME280;26963;42.666;23.366;2023-02-11T11:41:55;96225.34;;;7.16;27.02
40205;BME280;26963;42.666;23.366;2023-02-11T11:44:31;96263.06;;;7.42;26.76
40205;BME280;26963;42.666;23.366;2023-02-11T11:47:33;96240.31;;;7.51;27.39
40205;BME280;26963;42.666;23.366;2023-02-11T11:53:11;96242.94;;;7.63;27.43
40205;BME280;26963;42.666;23.366;2023-02-11T11:55:45;96223.28;;;7.52;26.98
40205;BME280;26963;42.666;23.366;2023-02-11T11:58:15;96232.66;;;7.55;26.65
40205;BME280;26963;42.666;23.366;2023-02-11T12:08:20;96233.88;;;8.15;27.62
40205;BME280;26963;42.666;23.366;2023-02-11T12:11:25;96225.75;;;8.44;26.79
40205;BME280;26963;42.666;23.366;2023-02-11T12:30:15;96181.66;;;8.36;26.93
40205;BME280;26963;42.666;23.366;2023-02-11T12:33:05;96184.78;;;8.50;27.05
40205;BME280;26963;42.666;23.366;2023-02-11T12:38:23;96169.28;;;8.47;25.59
40205;BME280;26963;42.666;23.366;2023-02-11T12:44:38;96082.41;;;8.12;24.99
40205;BME280;26963;42.666;23.366;2023-02-11T12:50:14;96150.91;;;8.28;25.00
40205;BME280;26963;42.666;23.366;2023-02-11T12:52:58;96169.91;;;8.37;24.79
40205;BME280;26963;42.666;23.366;2023-02-11T12:55:37;96162.31;;;8.46;25.65
40205;BME280;26963;42.666;23.366;2023-02-11T12:58:04;96111.19;;;8.10;25.19
40205;BME280;26963;42.666;23.366;2023-02-11T13:00:41;96099.69;;;7.87;25.25
40205;BME280;26963;42.666;23.366;2023-02-11T13:03:11;96159.72;;;8.12;25.04
40205;BME280;26963;42.666;23.366;2023-02-11T13:05:51;96151.50;;;7.96;25.61
40205;BME280;26963;42.666;23.366;2023-02-11T13:08:27;96150.31;;;7.87;26.24
40205;BME280;26963;42.666;23.366;2023-02-11T13:11:01;96153.16;;;7.80;26.23
40205;BME280;26963;42.666;23.366;2023-02-11T13:13:38;96085.31;;;7.32;26.82
40205;BME280;26963;42.666;23.366;2023-02-11T13:16:34;96136.53;;;7.56;26.91
40205;BME280;26963;42.666;23.366;2023-02-11T13:19:28;96117.59;;;7.35;26.84
40205;BME280;26963;42.666;23.366;2023-02-11T13:27:35;96069.97;;;6.88;27.13
40205;BME280;26963;42.666;23.366;2023-02-11T13:35:47;96134.50;;;7.12;27.66
40205;BME280;26963;42.666;23.366;2023-02-11T13:38:20;96137.25;;;7.00;27.83
40205;BME280;26963;42.666;23.366;2023-02-11T13:41:22;96139.50;;;6.92;28.88
40205;BME280;26963;42.666;23.366;2023-02-11T13:46:56;96131.09;;;6.83;28.05
40205;BME280;26963;42.666;23.366;2023-02-11T13:49:28;96112.84;;;6.75;28.24
40205;BME280;26963;42.666;23.366;2023-02-11T13:51:55;96124.69;;;6.84;27.65
40205;BME280;26963;42.666;23.366;2023-02-11T13:54:32;96108.88;;;6.77;27.65
40205;BME280;26963;42.666;23.366;2023-02-11T13:57:34;96038.19;;;6.07;28.50
40205;BME280;26963;42.666;23.366;2023-02-11T14:00:41;96069.53;;;6.33;28.64
40205;BME280;26963;42.666;23.366;2023-02-11T14:14:25;96097.25;;;6.38;27.01
40205;BME280;26963;42.666;23.366;2023-02-11T14:19:44;96097.53;;;6.24;27.11
40205;BME280;26963;42.666;23.366;2023-02-11T14:25:02;96067.31;;;6.01;27.01
40205;BME280;26963;42.666;23.366;2023-02-11T14:27:29;95905.06;;;4.98;26.74
40205;BME280;26963;42.666;23.366;2023-02-11T14:35:26;96077.38;;;5.99;28.32
40205;BME280;26963;42.666;23.366;2023-02-11T14:41:19;96082.91;;;6.10;28.46
40205;BME280;26963;42.666;23.366;2023-02-11T14:43:50;96080.69;;;6.07;28.59
40205;BME280;26963;42.666;23.366;2023-02-11T14:46:19;95896.31;;;4.62;28.81
40205;BME280;26963;42.666;23.366;2023-02-11T14:48:51;96074.00;;;5.92;29.18
40205;BME280;26963;42.666;23.366;2023-02-11T14:51:22;96098.84;;;5.86;29.16
40205;BME280;26963;42.666;23.366;2023-02-11T14:53:50;96092.94;;;5.84;29.38
40205;BME280;26963;42.666;23.366;2023-02-11T14:56:22;96098.50;;;5.94;29.49
40205;BME280;26963;42.666;23.366;2023-02-11T14:58:53;96020.03;;;5.51;29.56
40205;BME280;26963;42.666;23.366;2023-02-11T15:01:27;96026.28;;;5.45;29.59
40205;BME280;26963;42.666;23.366;2023-02-11T15:03:57;96099.66;;;5.75;29.76
40205;BME280;26963;42.666;23.366;2023-02-11T15:06:41;96090.53;;;5.70;30.28
40205;BME280;26963;42.666;23.366;2023-02-11T15:09:31;96085.00;;;5.60;30.26
40205;BME280;26963;42.666;23.366;2023-02-11T15:11:58;96078.78;;;5.66;30.42
40205;BME280;26963;42.666;23.366;2023-02-11T15:14:29;96073.38;;;5.61;30.21
40205;BME280;26963;42.666;23.366;2023-02-11T15:17:00;95935.97;;;4.68;30.26
40205;BME280;26963;42.666;23.366;2023-02-11T15:19:31;96050.50;;;5.36;30.64
40205;BME280;26963;42.666;23.366;2023-02-11T15:22:03;96074.50;;;5.42;31.15
40205;BME280;26963;42.666;23.366;2023-02-11T15:24:31;96000.66;;;4.79;31.23
40205;BME280;26963;42.666;23.366;2023-02-11T15:29:34;96058.13;;;5.21;31.15
40205;BME280;26963;42.666;23.366;2023-02-11T15:32:14;95926.47;;;4.25;31.41
40205;BME280;26963;42.666;23.366;2023-02-11T15:34:45;96056.03;;;4.99;31.03
40205;BME280;26963;42.666;23.366;2023-02-11T15:37:28;96050.13;;;4.85;31.92